createdAt,value
2023-01-15T00:02:17.549Z,8.40
2023-01-15T00:04:44.829Z,6.43
2023-01-15T00:07:12.051Z,11.20
2023-01-15T00:09:39.191Z,10.83
2023-01-15T00:12:06.431Z,10.88
2023-01-15T00:14:33.650Z,11.40
2023-01-15T00:17:00.852Z,11.65
2023-01-15T00:19:27.985Z,13.95
2023-01-15T00:21:55.236Z,13.60
2023-01-15T00:24:40.869Z,11.98
2023-01-15T00:27:29.888Z,16.10
2023-01-15T00:29:57.130Z,13.35
2023-01-15T00:32:27.785Z,9.95
2023-01-15T00:34:56.458Z,13.35
2023-01-15T00:37:23.694Z,13.93
2023-01-15T00:39:50.974Z,9.38
2023-01-15T00:42:18.239Z,10.27
2023-01-15T00:44:46.914Z,9.85
2023-01-15T00:47:15.158Z,10.60
2023-01-15T00:49:43.058Z,10.70
2023-01-15T00:52:11.341Z,11.25
2023-01-15T00:54:38.777Z,10.02
2023-01-15T00:57:06.102Z,13.15
2023-01-15T00:59:33.313Z,12.65
2023-01-15T01:02:00.613Z,15.00
2023-01-15T01:04:27.916Z,14.75
2023-01-15T01:06:55.988Z,11.55
2023-01-15T01:09:23.247Z,11.95
2023-01-15T01:11:50.470Z,12.37
2023-01-15T01:14:17.697Z,11.17
2023-01-15T01:16:45.014Z,15.27
2023-01-15T01:19:18.509Z,9.13
2023-01-15T01:21:47.342Z,14.73
2023-01-15T01:24:18.650Z,12.93
2023-01-15T01:26:46.693Z,11.25
2023-01-15T01:29:15.385Z,11.97
2023-01-15T01:31:45.598Z,11.98
2023-01-15T01:34:13.858Z,12.85
2023-01-15T01:36:43.101Z,14.17
2023-01-15T01:39:16.794Z,13.13
2023-01-15T01:41:44.681Z,10.48
2023-01-15T01:44:34.639Z,10.00
2023-01-15T01:47:05.300Z,10.15
2023-01-15T01:49:34.411Z,12.73
2023-01-15T01:52:08.767Z,11.77
2023-01-15T01:54:38.020Z,11.90
2023-01-15T01:57:06.933Z,11.40
2023-01-15T01:59:34.993Z,12.00
2023-01-15T02:02:03.711Z,12.03
2023-01-15T02:04:32.172Z,11.05
2023-01-15T02:07:01.585Z,12.80
2023-01-15T02:09:28.819Z,13.98
2023-01-15T02:12:01.145Z,10.45
2023-01-15T02:14:42.157Z,9.75
2023-01-15T02:17:38.631Z,11.47
2023-01-15T02:20:28.979Z,14.13
2023-01-15T02:23:11.682Z,9.98
2023-01-15T02:25:48.011Z,12.17
2023-01-15T02:28:22.717Z,12.43
2023-01-15T02:30:56.875Z,11.55
2023-01-15T02:33:30.136Z,13.07
2023-01-15T02:36:06.474Z,10.32
2023-01-15T02:38:40.247Z,10.88
2023-01-15T02:41:17.561Z,10.43
2023-01-15T02:43:55.450Z,12.88
2023-01-15T02:46:30.218Z,12.27
2023-01-15T02:49:00.497Z,13.80
2023-01-15T02:51:41.497Z,13.85
2023-01-15T02:54:14.067Z,13.23
2023-01-15T02:56:45.428Z,9.02
2023-01-15T02:59:21.346Z,11.25
2023-01-15T03:01:58.914Z,11.50
2023-01-15T03:04:32.564Z,11.68
2023-01-15T03:07:12.302Z,11.70
2023-01-15T03:09:39.702Z,9.43
2023-01-15T03:12:06.931Z,14.52
2023-01-15T03:14:37.963Z,11.68
2023-01-15T03:17:16.348Z,11.45
2023-01-15T03:20:13.690Z,12.25
2023-01-15T03:22:46.053Z,10.18
2023-01-15T03:25:29.520Z,10.32
2023-01-15T03:28:01.814Z,11.40
2023-01-15T03:30:29.769Z,7.93
2023-01-15T03:32:57.259Z,9.63
2023-01-15T03:35:46.682Z,10.93
2023-01-15T03:38:25.415Z,11.63
2023-01-15T03:40:54.512Z,9.27
2023-01-15T03:43:41.113Z,11.70
2023-01-15T03:46:27.401Z,10.85
2023-01-15T03:49:10.360Z,9.13
2023-01-15T03:51:55.474Z,11.10
2023-01-15T03:55:16.554Z,11.23
2023-01-15T03:57:58.828Z,11.50
2023-01-15T04:00:36.039Z,13.48
2023-01-15T04:03:06.449Z,12.23
2023-01-15T04:05:36.905Z,13.20
2023-01-15T04:08:06.113Z,15.63
2023-01-15T04:10:34.865Z,11.40
2023-01-15T04:13:04.311Z,11.98
2023-01-15T04:15:32.323Z,12.52
2023-01-15T04:17:59.571Z,9.80
2023-01-15T04:20:29.620Z,10.73
2023-01-15T04:22:56.861Z,10.37
2023-01-15T04:25:24.040Z,13.75
2023-01-15T04:27:54.265Z,11.90
2023-01-15T04:30:21.823Z,11.18
2023-01-15T04:32:50.139Z,9.88
2023-01-15T04:35:18.234Z,10.65
2023-01-15T04:37:46.285Z,10.45
2023-01-15T04:40:32.459Z,7.50
2023-01-15T04:43:18.539Z,9.82
2023-01-15T04:45:46.186Z,9.25
2023-01-15T04:48:13.426Z,9.35
2023-01-15T04:50:40.713Z,9.70
2023-01-15T04:53:07.853Z,10.75
2023-01-15T04:55:35.045Z,8.60
2023-01-15T04:58:02.291Z,7.82
2023-01-15T05:00:29.546Z,14.83
2023-01-15T05:02:56.734Z,12.10
2023-01-15T05:05:23.968Z,13.43
2023-01-15T05:07:51.187Z,9.43
2023-01-15T05:10:18.436Z,12.30
2023-01-15T05:12:45.552Z,10.70
2023-01-15T05:15:12.687Z,10.80
2023-01-15T05:17:39.858Z,10.03
2023-01-15T05:20:08.250Z,8.90
2023-01-15T05:22:35.565Z,8.43
2023-01-15T05:25:03.045Z,9.07
2023-01-15T05:27:31.248Z,13.77
2023-01-15T05:29:58.414Z,8.53
2023-01-15T05:32:25.632Z,8.35
2023-01-15T05:34:52.791Z,6.93
2023-01-15T05:37:20.026Z,7.38
2023-01-15T05:39:47.197Z,8.93
2023-01-15T05:42:14.373Z,8.38
2023-01-15T05:44:41.613Z,12.23
2023-01-15T05:47:10.663Z,9.47
2023-01-15T05:49:40.156Z,6.68
2023-01-15T05:52:08.263Z,6.60
2023-01-15T05:54:36.094Z,7.55
2023-01-15T05:57:03.811Z,8.90
2023-01-15T05:59:32.775Z,9.65
2023-01-15T06:02:00.726Z,8.57
2023-01-15T06:04:28.304Z,9.85
2023-01-15T06:06:56.748Z,11.13
2023-01-15T06:09:25.146Z,8.70
2023-01-15T06:11:53.614Z,7.47
2023-01-15T06:14:21.047Z,11.93
2023-01-15T06:16:48.308Z,7.97
2023-01-15T06:19:15.585Z,9.93
2023-01-15T06:21:43.073Z,10.37
2023-01-15T06:24:10.722Z,7.72
2023-01-15T06:26:39.275Z,11.05
2023-01-15T06:29:06.542Z,9.25
2023-01-15T06:31:33.734Z,6.70
2023-01-15T06:34:00.933Z,7.68
2023-01-15T06:36:29.332Z,11.57
2023-01-15T06:38:56.541Z,7.95
2023-01-15T06:41:44.477Z,10.55
2023-01-15T06:44:35.564Z,10.73
2023-01-15T06:47:24.320Z,8.70
2023-01-15T06:49:57.734Z,7.72
2023-01-15T06:52:26.550Z,8.88
2023-01-15T06:54:53.946Z,7.88
2023-01-15T06:57:21.835Z,7.68
2023-01-15T06:59:49.979Z,10.63
2023-01-15T07:02:18.225Z,8.93
2023-01-15T07:04:46.435Z,7.85
2023-01-15T07:07:19.136Z,12.25
2023-01-15T07:09:46.674Z,8.07
2023-01-15T07:12:14.131Z,8.27
2023-01-15T07:14:41.560Z,11.40
2023-01-15T07:17:09.233Z,10.82
2023-01-15T07:19:37.207Z,12.10
2023-01-15T07:22:05.243Z,9.80
2023-01-15T07:24:32.498Z,13.00
2023-01-15T07:27:00.009Z,10.20
2023-01-15T07:29:27.199Z,9.68
2023-01-15T07:31:54.403Z,13.83
2023-01-15T07:34:21.868Z,8.30
2023-01-15T07:36:49.142Z,7.23
2023-01-15T07:39:16.359Z,9.50
2023-01-15T07:42:02.365Z,12.40
2023-01-15T07:44:53.047Z,10.73
2023-01-15T07:47:42.092Z,9.73
2023-01-15T07:50:17.258Z,12.63
2023-01-15T07:52:44.535Z,18.38
2023-01-15T07:55:15.026Z,21.05
2023-01-15T07:57:43.362Z,18.92
2023-01-15T08:00:16.323Z,17.75
2023-01-15T08:02:45.876Z,17.95
2023-01-15T08:05:13.049Z,21.10
2023-01-15T08:07:41.828Z,16.33
2023-01-15T08:10:11.858Z,13.13
2023-01-15T08:12:57.916Z,17.80
2023-01-15T08:15:26.249Z,13.68
2023-01-15T08:17:53.917Z,12.70
2023-01-15T08:20:25.617Z,12.95
2023-01-15T08:22:53.469Z,11.80
2023-01-15T08:25:23.936Z,12.93
2023-01-15T08:27:52.087Z,15.73
2023-01-15T08:30:23.960Z,15.73
2023-01-15T08:32:51.430Z,17.45
2023-01-15T08:35:18.915Z,13.18
2023-01-15T08:37:46.119Z,11.30
2023-01-15T08:40:13.728Z,9.15
2023-01-15T08:42:41.089Z,13.70
2023-01-15T08:45:09.050Z,16.30
2023-01-15T08:47:37.307Z,15.35
2023-01-15T08:50:06.327Z,16.77
2023-01-15T08:52:33.523Z,14.15
2023-01-15T08:55:00.646Z,13.77
2023-01-15T08:57:27.785Z,14.25
2023-01-15T08:59:54.926Z,11.73
2023-01-15T09:02:22.250Z,10.87
2023-01-15T09:04:49.503Z,11.40
2023-01-15T09:07:16.853Z,10.77
2023-01-15T09:09:44.058Z,10.60
2023-01-15T09:12:11.249Z,16.50
2023-01-15T09:14:58.970Z,16.20
2023-01-15T09:17:25.593Z,20.75
2023-01-15T09:19:52.790Z,19.07
2023-01-15T09:22:19.984Z,20.55
2023-01-15T09:24:47.207Z,16.92
2023-01-15T09:27:14.411Z,19.77
2023-01-15T09:29:41.622Z,17.80
2023-01-15T09:32:10.259Z,16.08
2023-01-15T09:34:37.510Z,18.02
2023-01-15T09:37:04.696Z,14.82
2023-01-15T09:39:31.881Z,11.13
2023-01-15T09:42:12.838Z,13.77
2023-01-15T09:44:48.871Z,12.38
2023-01-15T09:47:33.653Z,15.70
2023-01-15T09:50:13.441Z,10.27
2023-01-15T09:52:49.693Z,13.00
2023-01-15T09:55:28.547Z,13.32
2023-01-15T09:57:59.303Z,11.97
2023-01-15T10:00:29.986Z,13.38
2023-01-15T10:03:05.140Z,10.80
2023-01-15T10:05:38.475Z,10.48
2023-01-15T10:08:24.030Z,15.30
2023-01-15T10:11:03.163Z,11.80
2023-01-15T10:13:34.567Z,12.23
2023-01-15T10:16:02.206Z,12.75
2023-01-15T10:18:29.843Z,11.23
2023-01-15T10:21:13.341Z,12.27
2023-01-15T10:24:03.736Z,13.50
2023-01-15T10:26:36.094Z,11.75
2023-01-15T10:29:23.935Z,12.82
2023-01-15T10:32:29.485Z,13.48
2023-01-15T10:35:26.279Z,17.67
2023-01-15T10:38:08.413Z,10.48
2023-01-15T10:40:54.074Z,9.68
2023-01-15T10:43:31.493Z,10.57
2023-01-15T10:46:01.927Z,9.32
2023-01-15T10:48:48.728Z,9.25
2023-01-15T10:51:18.861Z,10.07
2023-01-15T10:54:00.559Z,8.65
2023-01-15T10:57:11.865Z,11.15
2023-01-15T11:00:05.348Z,14.02
2023-01-15T11:02:43.459Z,11.50
2023-01-15T11:05:22.180Z,12.70
2023-01-15T11:08:26.274Z,8.50
2023-01-15T11:10:41.518Z,8.82
2023-01-15T11:13:40.307Z,15.13
2023-01-15T11:16:55.444Z,12.10
2023-01-15T11:19:37.838Z,13.45
2023-01-15T11:22:12.017Z,9.75
2023-01-15T11:24:52.652Z,9.75
2023-01-15T11:27:33.247Z,7.87
2023-01-15T11:30:02.837Z,8.55
2023-01-15T11:32:33.858Z,17.55
2023-01-15T11:35:18.262Z,8.40
2023-01-15T11:37:45.528Z,8.93
2023-01-15T11:40:18.752Z,7.93
2023-01-15T11:43:06.168Z,6.72
2023-01-15T11:45:51.945Z,9.30
2023-01-15T11:48:40.303Z,10.05
2023-01-15T11:51:13.654Z,9.18
2023-01-15T11:53:51.539Z,9.30
2023-01-15T11:56:23.282Z,9.50
2023-01-15T11:58:55.973Z,8.40
2023-01-15T12:01:34.590Z,12.57
2023-01-15T12:04:06.163Z,9.37
2023-01-15T12:06:37.254Z,8.90
2023-01-15T12:09:10.914Z,12.00
2023-01-15T12:12:25.352Z,9.00
2023-01-15T12:15:28.562Z,8.95
2023-01-15T12:18:19.548Z,10.65
2023-01-15T12:21:34.228Z,9.90
2023-01-15T12:24:10.548Z,11.95
2023-01-15T12:27:07.112Z,10.85
2023-01-15T12:29:40.374Z,10.45
2023-01-15T12:32:16.016Z,10.82
2023-01-15T12:34:54.246Z,8.73
2023-01-15T12:37:28.179Z,7.53
2023-01-15T12:39:58.183Z,8.87
2023-01-15T12:42:46.404Z,11.13
2023-01-15T12:45:20.317Z,8.00
2023-01-15T12:48:00.085Z,11.15
2023-01-15T12:50:49.255Z,10.88
2023-01-15T12:53:43.519Z,9.88
2023-01-15T12:56:15.211Z,10.15
2023-01-15T12:59:13.116Z,9.15
2023-01-15T13:01:52.210Z,12.13
2023-01-15T13:04:53.826Z,7.57
2023-01-15T13:07:39.906Z,11.57
2023-01-15T13:10:23.868Z,15.10
2023-01-15T13:12:59.430Z,11.07
2023-01-15T13:15:30.964Z,8.68
2023-01-15T13:18:16.494Z,8.10
2023-01-15T13:20:51.811Z,9.60
2023-01-15T13:23:37.177Z,12.17
2023-01-15T13:26:35.789Z,10.68
2023-01-15T13:29:09.123Z,9.50
2023-01-15T13:32:17.589Z,12.35
2023-01-15T13:34:55.097Z,15.70
2023-01-15T13:37:25.894Z,13.27
2023-01-15T13:40:03.472Z,10.77
2023-01-15T13:42:35.461Z,13.07
2023-01-15T13:45:37.012Z,10.23
2023-01-15T13:48:20.239Z,10.63
2023-01-15T13:50:59.040Z,17.10
2023-01-15T13:53:32.109Z,12.52
2023-01-15T13:56:08.947Z,10.82
2023-01-15T13:58:40.627Z,17.77
2023-01-15T14:01:22.899Z,15.60
2023-01-15T14:04:12.217Z,16.30
2023-01-15T14:06:39.490Z,21.20
2023-01-15T14:09:10.279Z,11.90
2023-01-15T14:11:42.598Z,14.73
2023-01-15T14:14:36.134Z,19.27
2023-01-15T14:17:16.732Z,20.20
2023-01-15T14:20:21.098Z,16.77
2023-01-15T14:23:16.750Z,15.68
2023-01-15T14:25:50.320Z,15.20
2023-01-15T14:28:24.446Z,15.82
2023-01-15T14:31:08.870Z,15.50
2023-01-15T14:34:04.061Z,16.90
2023-01-15T14:36:38.205Z,16.40
2023-01-15T14:39:20.670Z,16.10
2023-01-15T14:42:25.108Z,17.05
2023-01-15T14:44:58.706Z,17.00
2023-01-15T14:47:33.797Z,16.83
2023-01-15T14:50:28.095Z,17.25
2023-01-15T14:53:00.484Z,18.63
2023-01-15T14:55:28.924Z,17.57
2023-01-15T14:58:14.809Z,17.43
2023-01-15T15:00:45.998Z,18.67
2023-01-15T15:03:17.882Z,19.00
2023-01-15T15:05:47.064Z,17.70
2023-01-15T15:08:18.568Z,19.50
2023-01-15T15:10:52.978Z,23.15
2023-01-15T15:13:34.282Z,19.27
2023-01-15T15:16:13.562Z,18.58
2023-01-15T15:18:58.333Z,19.95
2023-01-15T15:21:29.071Z,20.42
2023-01-15T15:24:18.331Z,19.65
2023-01-15T15:26:45.636Z,19.13
2023-01-15T15:29:15.310Z,17.90
2023-01-15T15:31:48.084Z,17.25
2023-01-15T15:34:23.416Z,18.70
2023-01-15T15:36:50.663Z,16.80
2023-01-15T15:39:53.301Z,15.00
2023-01-15T15:42:44.915Z,17.83
2023-01-15T15:45:50.194Z,17.65
2023-01-15T15:48:45.724Z,17.05
2023-01-15T15:51:30.669Z,16.02
2023-01-15T15:54:16.459Z,16.15
2023-01-15T15:57:12.425Z,18.03
2023-01-15T15:59:51.059Z,18.13
2023-01-15T16:02:25.846Z,17.38
2023-01-15T16:04:58.749Z,16.67
2023-01-15T16:07:33.772Z,20.25
2023-01-15T16:10:07.113Z,17.80
2023-01-15T16:12:40.574Z,16.83
2023-01-15T16:15:19.322Z,16.70
2023-01-15T16:17:48.128Z,18.27
2023-01-15T16:20:17.789Z,16.30
2023-01-15T16:22:51.283Z,19.23
2023-01-15T16:25:22.998Z,19.73
2023-01-15T16:27:50.529Z,15.82
2023-01-15T16:30:18.166Z,16.67
2023-01-15T16:32:46.056Z,16.80
2023-01-15T16:35:19.529Z,17.88
2023-01-15T16:37:49.330Z,17.08
2023-01-15T16:40:29.875Z,16.25
2023-01-15T16:43:21.890Z,13.80
2023-01-15T16:45:58.047Z,15.93
2023-01-15T16:48:41.695Z,15.45
2023-01-15T16:51:31.821Z,14.23
2023-01-15T16:54:01.997Z,12.07
2023-01-15T16:56:35.935Z,15.00
2023-01-15T16:59:17.385Z,15.30
2023-01-15T17:01:47.088Z,17.08
2023-01-15T17:04:27.256Z,11.95
2023-01-15T17:07:14.722Z,16.92
2023-01-15T17:09:52.514Z,14.70
2023-01-15T17:12:42.984Z,18.75
2023-01-15T17:15:19.767Z,19.05
2023-01-15T17:17:51.857Z,16.80
2023-01-15T17:20:21.224Z,20.50
2023-01-15T17:22:49.525Z,21.73
2023-01-15T17:25:31.215Z,16.95
2023-01-15T17:27:59.712Z,23.73
2023-01-15T17:30:31.413Z,18.83
2023-01-15T17:33:00.246Z,16.30
2023-01-15T17:35:33.691Z,17.58
2023-01-15T17:38:00.974Z,20.13
2023-01-15T17:40:28.918Z,22.85
2023-01-15T17:42:56.234Z,17.83
2023-01-15T17:45:26.087Z,18.65
2023-01-15T17:47:53.492Z,17.83
2023-01-15T17:50:20.946Z,18.30
2023-01-15T17:52:48.695Z,18.95
2023-01-15T17:55:37.454Z,19.50
2023-01-15T17:58:23.484Z,19.63
2023-01-15T18:01:11.640Z,20.00
2023-01-15T18:04:03.423Z,20.10
2023-01-15T18:06:31.218Z,18.52
2023-01-15T18:09:01.415Z,19.13
2023-01-15T18:11:28.767Z,20.02
2023-01-15T18:13:56.961Z,19.35
2023-01-15T18:16:25.261Z,20.63
2023-01-15T18:18:53.904Z,20.20
2023-01-15T18:21:22.170Z,20.40
2023-01-15T18:23:49.433Z,22.45
2023-01-15T18:26:16.742Z,20.38
2023-01-15T18:28:46.281Z,21.52
2023-01-15T18:31:13.962Z,22.52
2023-01-15T18:33:41.211Z,22.17
2023-01-15T18:36:11.201Z,20.60
2023-01-15T18:38:40.997Z,20.17
2023-01-15T18:41:09.324Z,20.80
2023-01-15T18:43:55.392Z,20.40
2023-01-15T18:46:41.147Z,21.65
2023-01-15T18:49:08.366Z,21.38
2023-01-15T18:51:35.549Z,21.23
2023-01-15T18:54:02.833Z,20.65
2023-01-15T18:56:39.086Z,24.47
2023-01-15T18:59:10.884Z,20.40
2023-01-15T19:01:39.192Z,20.48
2023-01-15T19:04:08.567Z,21.95
2023-01-15T19:06:36.562Z,21.15
2023-01-15T19:09:04.339Z,20.80
2023-01-15T19:11:31.615Z,20.90
2023-01-15T19:14:17.720Z,20.05
2023-01-15T19:17:04.264Z,20.48
2023-01-15T19:19:31.461Z,20.73
2023-01-15T19:22:17.190Z,18.40
2023-01-15T19:24:45.861Z,18.98
2023-01-15T19:27:13.562Z,19.33
2023-01-15T19:29:40.754Z,19.10
2023-01-15T19:32:07.973Z,18.67
2023-01-15T19:34:35.249Z,18.85
2023-01-15T19:37:02.415Z,19.87
2023-01-15T19:39:30.048Z,19.48
2023-01-15T19:42:17.389Z,19.33
2023-01-15T19:45:03.330Z,19.42
2023-01-15T19:47:54.987Z,19.23
2023-01-15T19:50:31.676Z,19.40
2023-01-15T19:52:58.962Z,19.15
2023-01-15T19:55:29.660Z,19.27
2023-01-15T19:58:02.784Z,20.75
2023-01-15T20:00:31.931Z,19.17
2023-01-15T20:02:59.251Z,20.10
2023-01-15T20:05:29.492Z,17.95
2023-01-15T20:07:57.652Z,20.00
2023-01-15T20:10:27.592Z,18.65
2023-01-15T20:13:13.682Z,19.45
2023-01-15T20:15:43.754Z,19.83
2023-01-15T20:18:11.702Z,18.27
2023-01-15T20:20:42.124Z,19.08
2023-01-15T20:23:09.387Z,19.55
2023-01-15T20:25:38.089Z,19.50
2023-01-15T20:28:05.314Z,19.92
2023-01-15T20:30:32.454Z,20.48
2023-01-15T20:33:00.027Z,18.77
2023-01-15T20:35:33.482Z,19.20
2023-01-15T20:38:00.751Z,21.00
2023-01-15T20:40:28.563Z,20.83
2023-01-15T20:43:14.765Z,18.65
2023-01-15T20:45:41.990Z,18.17
2023-01-15T20:48:12.349Z,19.48
2023-01-15T20:51:00.488Z,19.23
2023-01-15T20:53:33.743Z,20.60
2023-01-15T20:56:02.636Z,19.60
2023-01-15T20:58:30.063Z,18.83
2023-01-15T21:01:04.898Z,19.87
2023-01-15T21:03:32.305Z,20.17
2023-01-15T21:05:59.606Z,20.88
2023-01-15T21:08:27.313Z,23.52
2023-01-15T21:10:55.103Z,21.33
2023-01-15T21:13:23.553Z,22.42
2023-01-15T21:15:59.135Z,20.48
2023-01-15T21:18:28.233Z,20.25
2023-01-15T21:20:55.758Z,19.67
2023-01-15T21:23:24.001Z,21.23
2023-01-15T21:25:51.336Z,24.10
2023-01-15T21:28:18.567Z,27.27
2023-01-15T21:30:45.772Z,21.40
2023-01-15T21:33:13.709Z,19.65
2023-01-15T21:35:41.442Z,21.77
2023-01-15T21:38:09.163Z,21.23
2023-01-15T21:40:37.737Z,28.52
2023-01-15T21:43:24.380Z,21.52
2023-01-15T21:45:51.947Z,22.08
2023-01-15T21:48:19.252Z,19.50
2023-01-15T21:50:46.441Z,19.90
2023-01-15T21:53:13.677Z,22.13
2023-01-15T21:55:48.856Z,18.13
2023-01-15T21:58:16.411Z,19.80
2023-01-15T22:00:43.943Z,20.13
2023-01-15T22:03:13.878Z,19.65
2023-01-15T22:05:41.060Z,20.47
2023-01-15T22:08:08.434Z,21.63
2023-01-15T22:10:35.695Z,20.30
2023-01-15T22:13:02.906Z,22.75
2023-01-15T22:15:30.054Z,20.98
2023-01-15T22:17:58.491Z,28.65
2023-01-15T22:20:25.696Z,20.40
2023-01-15T22:22:53.039Z,23.85
2023-01-15T22:25:20.220Z,29.40
2023-01-15T22:27:47.415Z,28.20
2023-01-15T22:30:16.506Z,25.75
2023-01-15T22:32:43.711Z,25.38
2023-01-15T22:35:10.988Z,23.55
2023-01-15T22:37:38.174Z,23.67
2023-01-15T22:40:06.108Z,31.73
2023-01-15T22:42:33.339Z,33.92
2023-01-15T22:45:00.836Z,27.75
2023-01-15T22:47:29.404Z,28.50
2023-01-15T22:49:56.735Z,28.70
2023-01-15T22:52:25.785Z,30.43
2023-01-15T22:54:53.437Z,25.63
2023-01-15T22:57:20.754Z,26.02
2023-01-15T22:59:50.183Z,24.30
2023-01-15T23:02:17.924Z,24.92
2023-01-15T23:04:45.217Z,25.30
2023-01-15T23:07:12.462Z,26.88
2023-01-15T23:09:39.672Z,27.65
2023-01-15T23:12:07.108Z,29.37
2023-01-15T23:14:34.308Z,27.73
2023-01-15T23:17:01.561Z,28.17
2023-01-15T23:19:28.748Z,28.55
2023-01-15T23:21:55.971Z,28.67
2023-01-15T23:24:23.284Z,28.90
2023-01-15T23:26:50.518Z,29.83
2023-01-15T23:29:17.780Z,28.88
2023-01-15T23:31:44.945Z,29.23
2023-01-15T23:34:12.452Z,28.65
2023-01-15T23:36:39.630Z,29.25
2023-01-15T23:39:06.841Z,29.43
2023-01-15T23:41:52.656Z,30.98
2023-01-15T23:44:39.100Z,28.08
2023-01-15T23:47:07.666Z,29.60
2023-01-15T23:49:35.187Z,29.70
2023-01-15T23:52:03.222Z,30.40
2023-01-15T23:54:32.554Z,29.02
2023-01-15T23:57:00.971Z,29.55
2023-01-15T23:59:29.008Z,28.52
